sensor_id;sensor_type;location;lat;lon;timestamp;temperature;humidity
16625;DHT22;8426;48.496;9.098;2024-03-06T00:01:18;4.50;99.90
16625;DHT22;8426;48.496;9.098;2024-03-06T00:06:22;4.50;99.90
16625;DHT22;8426;48.496;9.098;2024-03-06T00:11:26;4.50;99.90
16625;DHT22;8426;48.496;9.098;2024-03-06T00:16:31;4.50;99.90
16625;DHT22;8426;48.496;9.098;2024-03-06T00:21:36;4.60;99.90
16625;DHT22;8426;48.496;9.098;2024-03-06T00:26:40;4.50;99.90
16625;DHT22;8426;48.496;9.098;2024-03-06T00:31:45;4.50;99.90
16625;DHT22;8426;48.496;9.098;2024-03-06T00:36:49;4.50;99.90
16625;DHT22;8426;48.496;9.098;2024-03-06T00:41:53;4.40;99.90
16625;DHT22;8426;48.496;9.098;2024-03-06T00:47:00;4.40;99.90
16625;DHT22;8426;48.496;9.098;2024-03-06T00:52:04;4.30;99.90
16625;DHT22;8426;48.496;9.098;2024-03-06T00:57:08;4.30;99.90
16625;DHT22;8426;48.496;9.098;2024-03-06T01:02:14;4.20;99.90
16625;DHT22;8426;48.496;9.098;2024-03-06T01:07:17;4.20;99.90
16625;DHT22;8426;48.496;9.098;2024-03-06T01:12:21;4.20;99.90
16625;DHT22;8426;48.496;9.098;2024-03-06T01:17:26;4.10;99.90
16625;DHT22;8426;48.496;9.098;2024-03-06T01:22:29;4.10;99.90
16625;DHT22;8426;48.496;9.098;2024-03-06T01:27:33;4.00;99.90
16625;DHT22;8426;48.496;9.098;2024-03-06T01:32:38;4.00;99.90
16625;DHT22;8426;48.496;9.098;2024-03-06T01:37:42;4.00;99.90
16625;DHT22;8426;48.496;9.098;2024-03-06T01:42:46;4.00;99.90
16625;DHT22;8426;48.496;9.098;2024-03-06T01:47:52;3.90;99.90
16625;DHT22;8426;48.496;9.098;2024-03-06T01:52:56;3.90;99.90
16625;DHT22;8426;48.496;9.098;2024-03-06T01:57:59;3.90;99.90
16625;DHT22;8426;48.496;9.098;2024-03-06T02:03:05;3.90;99.90
16625;DHT22;8426;48.496;9.098;2024-03-06T02:08:09;3.90;99.90
16625;DHT22;8426;48.496;9.098;2024-03-06T02:13:13;4.00;99.90
16625;DHT22;8426;48.496;9.098;2024-03-06T02:18:18;4.00;99.90
16625;DHT22;8426;48.496;9.098;2024-03-06T02:23:30;4.00;99.90
16625;DHT22;8426;48.496;9.098;2024-03-06T02:28:33;4.00;99.90
16625;DHT22;8426;48.496;9.098;2024-03-06T02:33:38;4.00;99.90
16625;DHT22;8426;48.496;9.098;2024-03-06T02:38:52;4.00;99.90
16625;DHT22;8426;48.496;9.098;2024-03-06T02:43:55;4.10;99.90
16625;DHT22;8426;48.496;9.098;2024-03-06T02:48:59;4.20;99.90
16625;DHT22;8426;48.496;9.098;2024-03-06T02:54:04;4.20;99.90
16625;DHT22;8426;48.496;9.098;2024-03-06T02:59:08;4.20;99.90
16625;DHT22;8426;48.496;9.098;2024-03-06T03:04:12;4.20;99.90
16625;DHT22;8426;48.496;9.098;2024-03-06T03:09:17;4.10;99.90
16625;DHT22;8426;48.496;9.098;2024-03-06T03:14:21;4.10;99.90
16625;DHT22;8426;48.496;9.098;2024-03-06T03:19:26;4.10;99.90
16625;DHT22;8426;48.496;9.098;2024-03-06T03:24:31;4.00;99.90
16625;DHT22;8426;48.496;9.098;2024-03-06T03:29:34;4.00;99.90
16625;DHT22;8426;48.496;9.098;2024-03-06T03:34:38;4.00;99.90
16625;DHT22;8426;48.496;9.098;2024-03-06T03:39:45;4.00;99.90
16625;DHT22;8426;48.496;9.098;2024-03-06T03:44:48;4.00;99.90
16625;DHT22;8426;48.496;9.098;2024-03-06T03:49:52;4.10;99.90
16625;DHT22;8426;48.496;9.098;2024-03-06T03:55:12;4.10;99.90
16625;DHT22;8426;48.496;9.098;2024-03-06T04:00:35;4.10;99.90
16625;DHT22;8426;48.496;9.098;2024-03-06T04:05:40;4.10;99.90
16625;DHT22;8426;48.496;9.098;2024-03-06T04:10:45;4.10;99.90
16625;DHT22;8426;48.496;9.098;2024-03-06T04:15:52;4.00;99.90
16625;DHT22;8426;48.496;9.098;2024-03-06T04:20:56;4.00;99.90
16625;DHT22;8426;48.496;9.098;2024-03-06T04:26:01;3.90;99.90
16625;DHT22;8426;48.496;9.098;2024-03-06T04:31:08;4.00;99.90
16625;DHT22;8426;48.496;9.098;2024-03-06T04:36:42;4.00;99.90
16625;DHT22;8426;48.496;9.098;2024-03-06T04:41:47;4.00;99.90
16625;DHT22;8426;48.496;9.098;2024-03-06T04:46:51;4.00;99.90
16625;DHT22;8426;48.496;9.098;2024-03-06T04:51:54;4.00;99.90
16625;DHT22;8426;48.496;9.098;2024-03-06T04:56:59;4.00;99.90
16625;DHT22;8426;48.496;9.098;2024-03-06T05:02:03;4.00;99.90
16625;DHT22;8426;48.496;9.098;2024-03-06T05:07:06;4.00;99.90
16625;DHT22;8426;48.496;9.098;2024-03-06T05:12:29;4.10;99.90
16625;DHT22;8426;48.496;9.098;2024-03-06T05:17:49;4.10;99.90
16625;DHT22;8426;48.496;9.098;2024-03-06T05:23:10;4.10;99.90
16625;DHT22;8426;48.496;9.098;2024-03-06T05:28:39;4.10;99.90
16625;DHT22;8426;48.496;9.098;2024-03-06T05:34:03;4.20;99.90
16625;DHT22;8426;48.496;9.098;2024-03-06T05:39:24;4.10;99.90
16625;DHT22;8426;48.496;9.098;2024-03-06T05:44:52;4.10;99.90
16625;DHT22;8426;48.496;9.098;2024-03-06T05:51:04;4.10;99.90
16625;DHT22;8426;48.496;9.098;2024-03-06T05:56:10;4.10;99.90
16625;DHT22;8426;48.496;9.098;2024-03-06T06:01:33;4.10;99.90
16625;DHT22;8426;48.496;9.098;2024-03-06T06:06:36;4.10;99.90
16625;DHT22;8426;48.496;9.098;2024-03-06T06:11:41;4.10;99.90
16625;DHT22;8426;48.496;9.098;2024-03-06T06:16:46;4.20;99.90
16625;DHT22;8426;48.496;9.098;2024-03-06T06:21:51;4.20;99.90
16625;DHT22;8426;48.496;9.098;2024-03-06T06:26:55;4.20;99.90
16625;DHT22;8426;48.496;9.098;2024-03-06T06:32:00;4.10;99.90
16625;DHT22;8426;48.496;9.098;2024-03-06T06:37:06;4.20;99.90
16625;DHT22;8426;48.496;9.098;2024-03-06T06:42:10;4.20;99.90
16625;DHT22;8426;48.496;9.098;2024-03-06T06:47:15;4.30;99.90
16625;DHT22;8426;48.496;9.098;2024-03-06T06:52:19;4.30;99.90
16625;DHT22;8426;48.496;9.098;2024-03-06T06:57:30;4.30;99.90
16625;DHT22;8426;48.496;9.098;2024-03-06T07:02:52;4.40;99.90
16625;DHT22;8426;48.496;9.098;2024-03-06T07:08:04;4.40;99.90
16625;DHT22;8426;48.496;9.098;2024-03-06T07:13:28;4.50;99.90
16625;DHT22;8426;48.496;9.098;2024-03-06T07:18:36;4.60;99.90
16625;DHT22;8426;48.496;9.098;2024-03-06T07:23:40;4.70;99.90
16625;DHT22;8426;48.496;9.098;2024-03-06T07:28:49;4.70;99.90
16625;DHT22;8426;48.496;9.098;2024-03-06T07:33:56;4.70;99.90
16625;DHT22;8426;48.496;9.098;2024-03-06T07:39:00;4.70;99.90
16625;DHT22;8426;48.496;9.098;2024-03-06T07:44:11;4.70;99.90
16625;DHT22;8426;48.496;9.098;2024-03-06T07:49:31;4.80;99.90
16625;DHT22;8426;48.496;9.098;2024-03-06T07:54:35;4.80;99.90
16625;DHT22;8426;48.496;9.098;2024-03-06T07:59:38;4.90;99.90
16625;DHT22;8426;48.496;9.098;2024-03-06T08:04:44;4.90;99.90
16625;DHT22;8426;48.496;9.098;2024-03-06T08:09:47;4.90;99.90
16625;DHT22;8426;48.496;9.098;2024-03-06T08:14:50;5.00;99.90
16625;DHT22;8426;48.496;9.098;2024-03-06T08:20:00;5.10;99.90
16625;DHT22;8426;48.496;9.098;2024-03-06T08:25:09;5.20;99.90
16625;DHT22;8426;48.496;9.098;2024-03-06T08:30:13;5.30;99.90
16625;DHT22;8426;48.496;9.098;2024-03-06T08:35:19;5.40;99.90
16625;DHT22;8426;48.496;9.098;2024-03-06T08:40:23;5.50;99.90
16625;DHT22;8426;48.496;9.098;2024-03-06T08:45:29;5.50;99.90
16625;DHT22;8426;48.496;9.098;2024-03-06T08:50:35;5.50;99.90
16625;DHT22;8426;48.496;9.098;2024-03-06T08:55:43;5.60;99.90
16625;DHT22;8426;48.496;9.098;2024-03-06T09:00:47;5.80;99.90
16625;DHT22;8426;48.496;9.098;2024-03-06T09:05:52;5.80;99.90
16625;DHT22;8426;48.496;9.098;2024-03-06T09:10:56;5.90;99.90
16625;DHT22;8426;48.496;9.098;2024-03-06T09:16:01;5.80;99.90
16625;DHT22;8426;48.496;9.098;2024-03-06T09:21:06;5.70;99.90
16625;DHT22;8426;48.496;9.098;2024-03-06T09:26:10;5.80;99.90
16625;DHT22;8426;48.496;9.098;2024-03-06T09:31:20;5.80;99.90
16625;DHT22;8426;48.496;9.098;2024-03-06T09:36:39;5.90;99.90
16625;DHT22;8426;48.496;9.098;2024-03-06T09:41:43;6.00;99.90
16625;DHT22;8426;48.496;9.098;2024-03-06T09:46:49;6.00;99.90
16625;DHT22;8426;48.496;9.098;2024-03-06T09:51:54;6.00;99.90
16625;DHT22;8426;48.496;9.098;2024-03-06T09:57:00;6.10;99.90
16625;DHT22;8426;48.496;9.098;2024-03-06T10:02:34;6.30;99.90
16625;DHT22;8426;48.496;9.098;2024-03-06T10:07:56;6.20;99.90
16625;DHT22;8426;48.496;9.098;2024-03-06T10:13:01;6.20;99.90
16625;DHT22;8426;48.496;9.098;2024-03-06T10:18:12;6.20;99.90
16625;DHT22;8426;48.496;9.098;2024-03-06T10:23:18;6.10;99.90
16625;DHT22;8426;48.496;9.098;2024-03-06T10:28:23;6.10;99.90
16625;DHT22;8426;48.496;9.098;2024-03-06T10:33:26;6.20;99.90
16625;DHT22;8426;48.496;9.098;2024-03-06T10:38:38;6.50;99.90
16625;DHT22;8426;48.496;9.098;2024-03-06T10:43:50;6.60;99.90
16625;DHT22;8426;48.496;9.098;2024-03-06T10:48:57;6.60;99.90
16625;DHT22;8426;48.496;9.098;2024-03-06T10:54:05;6.70;99.90
16625;DHT22;8426;48.496;9.098;2024-03-06T10:59:12;6.90;99.90
16625;DHT22;8426;48.496;9.098;2024-03-06T11:04:19;6.70;99.90
16625;DHT22;8426;48.496;9.098;2024-03-06T11:09:26;6.60;99.90
16625;DHT22;8426;48.496;9.098;2024-03-06T11:14:53;6.50;99.90
16625;DHT22;8426;48.496;9.098;2024-03-06T11:20:17;6.40;99.90
16625;DHT22;8426;48.496;9.098;2024-03-06T11:26:02;6.30;99.90
16625;DHT22;8426;48.496;9.098;2024-03-06T11:31:07;6.40;99.90
16625;DHT22;8426;48.496;9.098;2024-03-06T11:36:19;6.50;99.90
16625;DHT22;8426;48.496;9.098;2024-03-06T11:41:28;6.40;99.90
16625;DHT22;8426;48.496;9.098;2024-03-06T11:46:42;6.40;99.90
16625;DHT22;8426;48.496;9.098;2024-03-06T11:51:48;6.60;99.90
16625;DHT22;8426;48.496;9.098;2024-03-06T11:56:55;6.80;99.90
16625;DHT22;8426;48.496;9.098;2024-03-06T12:02:00;6.90;99.90
16625;DHT22;8426;48.496;9.098;2024-03-06T12:07:05;6.90;99.90
16625;DHT22;8426;48.496;9.098;2024-03-06T12:12:16;6.80;99.90
16625;DHT22;8426;48.496;9.098;2024-03-06T12:17:20;6.70;99.90
16625;DHT22;8426;48.496;9.098;2024-03-06T12:22:30;6.70;99.90
16625;DHT22;8426;48.496;9.098;2024-03-06T12:27:41;6.70;99.90
16625;DHT22;8426;48.496;9.098;2024-03-06T12:32:56;6.60;99.90
16625;DHT22;8426;48.496;9.098;2024-03-06T12:38:12;6.60;99.90
16625;DHT22;8426;48.496;9.098;2024-03-06T12:43:18;6.50;99.90
16625;DHT22;8426;48.496;9.098;2024-03-06T12:48:23;6.80;99.90
16625;DHT22;8426;48.496;9.098;2024-03-06T12:53:29;7.00;99.90
16625;DHT22;8426;48.496;9.098;2024-03-06T12:58:36;7.10;99.90
16625;DHT22;8426;48.496;9.098;2024-03-06T13:03:40;7.10;99.90
16625;DHT22;8426;48.496;9.098;2024-03-06T13:08:43;6.90;99.90
16625;DHT22;8426;48.496;9.098;2024-03-06T13:13:51;6.80;99.90
16625;DHT22;8426;48.496;9.098;2024-03-06T13:18:55;6.70;99.90
16625;DHT22;8426;48.496;9.098;2024-03-06T13:23:59;6.60;99.90
16625;DHT22;8426;48.496;9.098;2024-03-06T13:29:12;6.50;99.90
16625;DHT22;8426;48.496;9.098;2024-03-06T13:34:16;6.60;99.90
16625;DHT22;8426;48.496;9.098;2024-03-06T13:39:20;6.50;99.90
16625;DHT22;8426;48.496;9.098;2024-03-06T13:44:25;6.60;99.90
16625;DHT22;8426;48.496;9.098;2024-03-06T13:49:36;6.70;99.90
16625;DHT22;8426;48.496;9.098;2024-03-06T13:54:40;6.70;99.90
16625;DHT22;8426;48.496;9.098;2024-03-06T13:59:47;6.80;99.90
16625;DHT22;8426;48.496;9.098;2024-03-06T14:04:52;6.70;99.90
16625;DHT22;8426;48.496;9.098;2024-03-06T14:09:56;6.70;99.90
16625;DHT22;8426;48.496;9.098;2024-03-06T14:15:06;6.70;99.90
16625;DHT22;8426;48.496;9.098;2024-03-06T14:20:15;6.80;99.90
16625;DHT22;8426;48.496;9.098;2024-03-06T14:25:20;6.70;99.90
16625;DHT22;8426;48.496;9.098;2024-03-06T14:30:28;6.60;99.90
16625;DHT22;8426;48.496;9.098;2024-03-06T14:35:33;6.60;99.90
16625;DHT22;8426;48.496;9.098;2024-03-06T14:40:37;6.50;99.90
16625;DHT22;8426;48.496;9.098;2024-03-06T14:45:42;6.50;99.90
16625;DHT22;8426;48.496;9.098;2024-03-06T14:50:48;6.50;99.90
16625;DHT22;8426;48.496;9.098;2024-03-06T14:55:54;6.50;99.90
16625;DHT22;8426;48.496;9.098;2024-03-06T15:00:59;6.60;99.90
16625;DHT22;8426;48.496;9.098;2024-03-06T15:06:02;6.60;99.90
16625;DHT22;8426;48.496;9.098;2024-03-06T15:11:07;6.50;99.90
16625;DHT22;8426;48.496;9.098;2024-03-06T15:16:13;6.40;99.90
16625;DHT22;8426;48.496;9.098;2024-03-06T15:21:20;6.30;99.90
16625;DHT22;8426;48.496;9.098;2024-03-06T15:26:24;6.30;99.90
16625;DHT22;8426;48.496;9.098;2024-03-06T15:31:29;6.30;99.90
16625;DHT22;8426;48.496;9.098;2024-03-06T15:36:35;6.30;99.90
16625;DHT22;8426;48.496;9.098;2024-03-06T15:41:39;6.20;99.90
16625;DHT22;8426;48.496;9.098;2024-03-06T15:47:01;6.20;99.90
16625;DHT22;8426;48.496;9.098;2024-03-06T15:52:12;6.20;99.90
16625;DHT22;8426;48.496;9.098;2024-03-06T15:57:15;6.20;99.90
16625;DHT22;8426;48.496;9.098;2024-03-06T16:02:24;6.20;99.90
16625;DHT22;8426;48.496;9.098;2024-03-06T16:07:28;6.20;99.90
16625;DHT22;8426;48.496;9.098;2024-03-06T16:12:37;6.20;99.90
16625;DHT22;8426;48.496;9.098;2024-03-06T16:17:42;6.20;99.90
16625;DHT22;8426;48.496;9.098;2024-03-06T16:22:45;6.20;99.90
16625;DHT22;8426;48.496;9.098;2024-03-06T16:27:49;6.10;99.90
16625;DHT22;8426;48.496;9.098;2024-03-06T16:32:54;6.10;99.90
16625;DHT22;8426;48.496;9.098;2024-03-06T16:37:58;6.10;99.90
16625;DHT22;8426;48.496;9.098;2024-03-06T16:43:01;6.00;99.90
16625;DHT22;8426;48.496;9.098;2024-03-06T16:48:06;6.00;99.90
16625;DHT22;8426;48.496;9.098;2024-03-06T16:53:12;6.00;99.90
16625;DHT22;8426;48.496;9.098;2024-03-06T16:58:16;6.00;99.90
16625;DHT22;8426;48.496;9.098;2024-03-06T17:03:21;5.90;99.90
16625;DHT22;8426;48.496;9.098;2024-03-06T17:08:24;6.00;99.90
16625;DHT22;8426;48.496;9.098;2024-03-06T17:13:28;5.90;99.90
16625;DHT22;8426;48.496;9.098;2024-03-06T17:18:33;5.90;99.90
16625;DHT22;8426;48.496;9.098;2024-03-06T17:23:37;5.90;99.90
16625;DHT22;8426;48.496;9.098;2024-03-06T17:28:52;5.90;99.90
16625;DHT22;8426;48.496;9.098;2024-03-06T17:33:57;5.80;99.90
16625;DHT22;8426;48.496;9.098;2024-03-06T17:39:04;5.80;99.90
16625;DHT22;8426;48.496;9.098;2024-03-06T17:44:11;5.80;99.90
16625;DHT22;8426;48.496;9.098;2024-03-06T17:49:41;5.80;99.90
16625;DHT22;8426;48.496;9.098;2024-03-06T17:54:51;5.80;99.90
16625;DHT22;8426;48.496;9.098;2024-03-06T17:59:55;5.80;99.90
16625;DHT22;8426;48.496;9.098;2024-03-06T18:04:59;5.80;99.90
16625;DHT22;8426;48.496;9.098;2024-03-06T18:10:03;5.80;99.90
16625;DHT22;8426;48.496;9.098;2024-03-06T18:15:08;5.80;99.90
16625;DHT22;8426;48.496;9.098;2024-03-06T18:20:14;5.80;99.90
16625;DHT22;8426;48.496;9.098;2024-03-06T18:25:17;5.80;99.90
16625;DHT22;8426;48.496;9.098;2024-03-06T18:30:23;5.80;99.90
16625;DHT22;8426;48.496;9.098;2024-03-06T18:35:29;5.70;99.90
16625;DHT22;8426;48.496;9.098;2024-03-06T18:40:33;5.70;99.90
16625;DHT22;8426;48.496;9.098;2024-03-06T18:45:36;5.70;99.90
16625;DHT22;8426;48.496;9.098;2024-03-06T18:51:02;5.70;99.90
16625;DHT22;8426;48.496;9.098;2024-03-06T18:56:06;5.70;99.90
16625;DHT22;8426;48.496;9.098;2024-03-06T19:01:10;5.70;99.90
16625;DHT22;8426;48.496;9.098;2024-03-06T19:06:16;5.70;99.90
16625;DHT22;8426;48.496;9.098;2024-03-06T19:11:28;5.70;99.90
16625;DHT22;8426;48.496;9.098;2024-03-06T19:16:46;5.80;99.90
16625;DHT22;8426;48.496;9.098;2024-03-06T19:21:54;5.80;99.90
16625;DHT22;8426;48.496;9.098;2024-03-06T19:26:58;5.80;99.90
16625;DHT22;8426;48.496;9.098;2024-03-06T19:32:04;5.70;99.90
16625;DHT22;8426;48.496;9.098;2024-03-06T19:37:10;5.80;99.90
16625;DHT22;8426;48.496;9.098;2024-03-06T19:42:13;5.80;99.90
16625;DHT22;8426;48.496;9.098;2024-03-06T19:47:17;5.90;99.90
16625;DHT22;8426;48.496;9.098;2024-03-06T19:52:22;5.90;99.90
16625;DHT22;8426;48.496;9.098;2024-03-06T19:57:25;5.90;99.90
16625;DHT22;8426;48.496;9.098;2024-03-06T20:02:30;5.90;99.90
16625;DHT22;8426;48.496;9.098;2024-03-06T20:07:51;5.90;99.90
16625;DHT22;8426;48.496;9.098;2024-03-06T20:12:54;5.80;99.90
16625;DHT22;8426;48.496;9.098;2024-03-06T20:18:01;5.80;99.90
16625;DHT22;8426;48.496;9.098;2024-03-06T20:23:28;5.70;99.90
16625;DHT22;8426;48.496;9.098;2024-03-06T20:28:31;5.70;99.90
16625;DHT22;8426;48.496;9.098;2024-03-06T20:33:35;5.70;99.90
16625;DHT22;8426;48.496;9.098;2024-03-06T20:38:40;5.70;99.90
16625;DHT22;8426;48.496;9.098;2024-03-06T20:43:45;5.70;99.90
16625;DHT22;8426;48.496;9.098;2024-03-06T20:48:52;5.80;99.90
16625;DHT22;8426;48.496;9.098;2024-03-06T20:54:53;5.70;99.90
16625;DHT22;8426;48.496;9.098;2024-03-06T20:59:58;5.70;99.90
16625;DHT22;8426;48.496;9.098;2024-03-06T21:05:14;5.70;99.90
16625;DHT22;8426;48.496;9.098;2024-03-06T21:10:30;5.70;99.90
16625;DHT22;8426;48.496;9.098;2024-03-06T21:15:34;5.70;99.90
16625;DHT22;8426;48.496;9.098;2024-03-06T21:20:38;5.70;99.90
16625;DHT22;8426;48.496;9.098;2024-03-06T21:25:44;5.80;99.90
16625;DHT22;8426;48.496;9.098;2024-03-06T21:30:50;5.80;99.90
16625;DHT22;8426;48.496;9.098;2024-03-06T21:35:53;5.90;99.90
16625;DHT22;8426;48.496;9.098;2024-03-06T21:40:58;5.90;99.90
16625;DHT22;8426;48.496;9.098;2024-03-06T21:46:03;5.90;99.90
16625;DHT22;8426;48.496;9.098;2024-03-06T21:51:07;5.90;99.90
16625;DHT22;8426;48.496;9.098;2024-03-06T21:56:13;5.90;99.90
16625;DHT22;8426;48.496;9.098;2024-03-06T22:01:16;5.90;99.90
16625;DHT22;8426;48.496;9.098;2024-03-06T22:06:20;5.90;99.90
16625;DHT22;8426;48.496;9.098;2024-03-06T22:11:25;6.00;99.90
16625;DHT22;8426;48.496;9.098;2024-03-06T22:16:32;6.00;99.90
16625;DHT22;8426;48.496;9.098;2024-03-06T22:21:37;6.00;99.90
16625;DHT22;8426;48.496;9.098;2024-03-06T22:26:42;6.00;99.90
16625;DHT22;8426;48.496;9.098;2024-03-06T22:31:52;6.00;99.90
16625;DHT22;8426;48.496;9.098;2024-03-06T22:36:57;6.00;99.90
16625;DHT22;8426;48.496;9.098;2024-03-06T22:42:04;6.00;99.90
16625;DHT22;8426;48.496;9.098;2024-03-06T22:47:08;6.00;99.90
16625;DHT22;8426;48.496;9.098;2024-03-06T22:52:11;5.90;99.90
16625;DHT22;8426;48.496;9.098;2024-03-06T22:57:19;5.90;99.90
16625;DHT22;8426;48.496;9.098;2024-03-06T23:02:23;5.90;99.90
16625;DHT22;8426;48.496;9.098;2024-03-06T23:07:52;5.80;99.90
16625;DHT22;8426;48.496;9.098;2024-03-06T23:13:01;5.80;99.90
16625;DHT22;8426;48.496;9.098;2024-03-06T23:18:05;5.70;99.90
16625;DHT22;8426;48.496;9.098;2024-03-06T23:23:14;5.70;99.90
16625;DHT22;8426;48.496;9.098;2024-03-06T23:28:19;5.70;99.90
16625;DHT22;8426;48.496;9.098;2024-03-06T23:33:39;5.60;99.90
16625;DHT22;8426;48.496;9.098;2024-03-06T23:38:42;5.60;99.90
16625;DHT22;8426;48.496;9.098;2024-03-06T23:43:47;5.50;99.90
16625;DHT22;8426;48.496;9.098;2024-03-06T23:48:51;5.40;99.90
16625;DHT22;8426;48.496;9.098;2024-03-06T23:53:55;5.20;99.90
16625;DHT22;8426;48.496;9.098;2024-03-06T23:59:00;5.10;99.90
